createdAt,value
2022-09-23T00:01:02.955Z,9.03
2022-09-23T00:03:32.573Z,8.96
2022-09-23T00:06:01.708Z,8.96
2022-09-23T00:08:28.772Z,8.95
2022-09-23T00:10:55.791Z,8.91
2022-09-23T00:13:24.555Z,8.89
2022-09-23T00:15:51.409Z,8.86
2022-09-23T00:18:18.033Z,8.84
2022-09-23T00:20:45.017Z,8.77
2022-09-23T00:23:11.483Z,8.73
2022-09-23T00:25:37.839Z,8.74
2022-09-23T00:28:04.451Z,8.73
2022-09-23T00:30:32.345Z,8.73
2022-09-23T00:32:58.813Z,8.77
2022-09-23T00:37:51.978Z,8.79
2022-09-23T00:40:18.684Z,8.79
2022-09-23T00:42:49.511Z,8.77
2022-09-23T00:45:16.697Z,8.77
2022-09-23T00:48:03.708Z,8.75
2022-09-23T00:50:36.345Z,8.68
2022-09-23T00:53:06.888Z,8.63
2022-09-23T00:55:39.107Z,8.55
2022-09-23T00:58:10.979Z,8.48
2022-09-23T01:00:38.168Z,8.44
2022-09-23T01:03:06.622Z,8.45
2022-09-23T01:05:36.578Z,8.44
2022-09-23T01:08:04.801Z,8.43
2022-09-23T01:10:43.247Z,8.41
2022-09-23T01:13:26.981Z,8.40
2022-09-23T01:16:28.108Z,8.38
2022-09-23T01:19:00.411Z,8.37
2022-09-23T01:21:38.452Z,8.34
2022-09-23T01:24:29.854Z,8.36
2022-09-23T01:27:27.180Z,8.34
2022-09-23T01:29:53.592Z,8.33
2022-09-23T01:32:42.388Z,8.35
2022-09-23T01:35:17.842Z,8.37
2022-09-23T01:37:56.937Z,8.28
2022-09-23T01:40:42.529Z,8.23
2022-09-23T01:43:50.865Z,8.13
2022-09-23T01:46:53.140Z,8.11
2022-09-23T01:49:25.306Z,8.13
2022-09-23T01:51:59.855Z,8.15
2022-09-23T01:54:38.799Z,8.14
2022-09-23T01:57:16.056Z,8.12
2022-09-23T01:59:57.075Z,8.07
2022-09-23T02:02:35.389Z,8.03
2022-09-23T02:05:14.823Z,8.03
2022-09-23T02:07:50.251Z,8.04
2022-09-23T02:10:29.247Z,8.09
2022-09-23T02:13:02.518Z,8.12
2022-09-23T02:15:35.135Z,8.12
2022-09-23T02:18:08.785Z,8.14
2022-09-23T02:20:41.307Z,8.12
2022-09-23T02:23:13.115Z,8.07
2022-09-23T02:26:08.734Z,8.01
2022-09-23T02:28:51.486Z,7.91
2022-09-23T02:31:47.585Z,7.84
2022-09-23T02:34:20.559Z,7.78
2022-09-23T02:37:08.167Z,7.75
2022-09-23T02:39:55.538Z,7.75
2022-09-23T02:42:28.853Z,7.73
2022-09-23T02:44:56.327Z,7.71
2022-09-23T02:47:29.012Z,7.71
2022-09-23T02:49:56.461Z,7.71
2022-09-23T02:52:24.992Z,7.71
2022-09-23T02:54:52.508Z,7.67
2022-09-23T02:57:19.584Z,7.64
2022-09-23T02:59:46.707Z,7.61
2022-09-23T03:02:35.584Z,7.60
2022-09-23T03:05:05.270Z,7.55
2022-09-23T03:07:32.799Z,7.54
2022-09-23T03:10:30.098Z,7.53
2022-09-23T03:13:12.686Z,7.56
2022-09-23T03:15:59.617Z,7.56
2022-09-23T03:18:50.183Z,7.57
2022-09-23T03:21:21.383Z,7.57
2022-09-23T03:23:48.702Z,7.61
2022-09-23T03:26:20.801Z,7.60
2022-09-23T03:28:47.537Z,7.54
2022-09-23T03:31:15.233Z,7.53
2022-09-23T03:33:47.042Z,7.50
2022-09-23T03:36:35.255Z,7.49
2022-09-23T03:39:08.207Z,7.49
2022-09-23T03:41:41.581Z,7.48
2022-09-23T03:44:09.450Z,7.49
2022-09-23T03:46:36.168Z,7.54
2022-09-23T03:49:10.358Z,7.59
2022-09-23T03:51:38.043Z,7.63
2022-09-23T03:54:06.163Z,7.63
2022-09-23T03:56:32.768Z,7.64
2022-09-23T03:58:59.333Z,7.65
2022-09-23T04:01:25.776Z,7.62
2022-09-23T04:03:53.325Z,7.60
2022-09-23T04:06:20.848Z,7.59
2022-09-23T04:08:47.307Z,7.57
2022-09-23T04:11:13.751Z,7.54
2022-09-23T04:13:40.499Z,7.51
2022-09-23T04:16:07.052Z,7.47
2022-09-23T04:18:33.504Z,7.45
2022-09-23T04:21:00.332Z,7.40
2022-09-23T04:23:27.740Z,7.37
2022-09-23T04:25:54.768Z,7.35
2022-09-23T04:28:21.789Z,7.38
2022-09-23T04:30:48.991Z,7.35
2022-09-23T04:33:16.849Z,7.31
2022-09-23T04:35:43.450Z,7.29
2022-09-23T04:38:13.044Z,7.30
2022-09-23T04:40:40.227Z,7.31
2022-09-23T04:43:10.529Z,7.35
2022-09-23T04:45:39.368Z,7.39
2022-09-23T04:48:05.788Z,7.41
2022-09-23T04:50:33.748Z,7.45
2022-09-23T04:53:00.253Z,7.49
2022-09-23T04:55:27.361Z,7.52
2022-09-23T04:57:53.771Z,7.56
2022-09-23T05:00:20.639Z,7.58
2022-09-23T05:02:49.670Z,7.61
2022-09-23T05:05:21.080Z,7.64
2022-09-23T05:07:48.432Z,7.66
2022-09-23T05:10:15.726Z,7.68
2022-09-23T05:12:42.754Z,7.69
2022-09-23T05:15:09.841Z,7.69
2022-09-23T05:17:37.290Z,7.72
2022-09-23T05:20:05.011Z,7.75
2022-09-23T05:22:31.437Z,7.77
2022-09-23T05:24:59.776Z,7.79
2022-09-23T05:27:26.200Z,7.82
2022-09-23T05:29:53.071Z,7.84
2022-09-23T05:32:19.662Z,7.84
2022-09-23T05:34:46.155Z,7.87
2022-09-23T05:37:13.248Z,7.93
2022-09-23T05:39:39.735Z,7.94
2022-09-23T05:42:06.768Z,8.00
2022-09-23T05:44:33.203Z,8.01
2022-09-23T05:46:59.737Z,8.03
2022-09-23T05:49:48.231Z,8.08
2022-09-23T05:52:13.144Z,8.09
2022-09-23T05:54:40.690Z,8.09
2022-09-23T05:57:07.065Z,8.08
2022-09-23T05:59:33.503Z,8.11
2022-09-23T06:02:00.730Z,8.15
2022-09-23T06:04:27.505Z,8.18
2022-09-23T06:06:53.928Z,8.21
2022-09-23T06:09:20.423Z,8.26
2022-09-23T06:11:46.864Z,8.31
2022-09-23T06:14:14.698Z,8.32
2022-09-23T06:16:41.839Z,8.37
2022-09-23T06:19:09.799Z,8.40
2022-09-23T06:21:38.924Z,8.44
2022-09-23T06:24:06.511Z,8.49
2022-09-23T06:26:34.876Z,8.52
2022-09-23T06:29:02.740Z,8.55
2022-09-23T06:31:30.489Z,8.57
2022-09-23T06:34:07.470Z,8.58
2022-09-23T06:36:43.213Z,8.60
2022-09-23T06:39:10.810Z,8.65
2022-09-23T06:41:37.852Z,8.73
2022-09-23T06:44:04.913Z,8.79
2022-09-23T06:46:31.839Z,8.89
2022-09-23T06:48:58.471Z,8.97
2022-09-23T06:51:25.355Z,9.07
2022-09-23T06:53:52.466Z,9.17
2022-09-23T06:56:20.951Z,9.29
2022-09-23T06:58:47.763Z,9.41
2022-09-23T07:01:16.672Z,9.53
2022-09-23T07:03:44.704Z,9.65
2022-09-23T07:06:11.968Z,9.79
2022-09-23T07:08:38.772Z,9.94
2022-09-23T07:11:06.992Z,10.09
2022-09-23T07:13:33.975Z,10.24
2022-09-23T07:16:02.189Z,10.36
2022-09-23T07:18:36.814Z,10.47
2022-09-23T07:21:08.572Z,10.51
2022-09-23T07:23:35.108Z,10.53
2022-09-23T07:26:01.728Z,10.66
2022-09-23T07:28:29.042Z,10.83
2022-09-23T07:31:00.284Z,10.95
2022-09-23T07:33:33.311Z,11.08
2022-09-23T07:36:07.532Z,11.20
2022-09-23T07:38:34.281Z,11.30
2022-09-23T07:41:06.335Z,11.38
2022-09-23T07:43:33.215Z,11.44
2022-09-23T07:46:05.393Z,11.50
2022-09-23T07:48:34.270Z,11.57
2022-09-23T07:51:13.843Z,11.67
2022-09-23T07:53:40.474Z,11.69
2022-09-23T07:56:07.687Z,11.78
2022-09-23T07:58:35.187Z,11.91
2022-09-23T08:01:06.492Z,12.08
2022-09-23T08:03:33.089Z,12.19
2022-09-23T08:06:12.098Z,12.28
2022-09-23T08:08:40.607Z,12.44
2022-09-23T08:11:10.161Z,12.61
2022-09-23T08:13:37.107Z,12.75
2022-09-23T08:16:04.476Z,12.86
2022-09-23T08:18:31.066Z,12.95
2022-09-23T08:20:57.608Z,13.01
2022-09-23T08:23:24.550Z,13.07
2022-09-23T08:25:59.697Z,13.28
2022-09-23T08:28:27.126Z,13.43
2022-09-23T08:30:54.241Z,13.53
2022-09-23T08:33:23.624Z,13.56
2022-09-23T08:35:51.036Z,13.58
2022-09-23T08:38:17.563Z,13.70
2022-09-23T08:40:47.414Z,13.81
2022-09-23T08:43:28.269Z,13.89
2022-09-23T08:45:57.244Z,14.05
2022-09-23T08:48:34.715Z,14.20
2022-09-23T08:51:13.081Z,14.37
2022-09-23T08:53:40.330Z,14.42
2022-09-23T08:56:14.016Z,14.43
2022-09-23T08:59:28.096Z,14.29
2022-09-23T09:02:09.200Z,14.27
2022-09-23T09:04:35.537Z,14.24
2022-09-23T09:07:34.743Z,14.32
2022-09-23T09:10:16.569Z,14.41
2022-09-23T09:12:53.926Z,14.46
2022-09-23T09:15:25.094Z,14.50
2022-09-23T09:18:17.953Z,14.57
2022-09-23T09:21:09.924Z,14.61
2022-09-23T09:23:48.408Z,14.56
2022-09-23T09:26:26.944Z,14.56
2022-09-23T09:28:54.771Z,14.60
2022-09-23T09:31:33.195Z,14.63
2022-09-23T09:34:15.788Z,14.66
2022-09-23T09:37:07.242Z,14.69
2022-09-23T09:39:35.303Z,14.76
2022-09-23T09:42:03.300Z,14.77
2022-09-23T09:44:49.588Z,14.83
2022-09-23T09:47:34.824Z,14.87
2022-09-23T09:50:09.367Z,15.00
2022-09-23T09:52:39.956Z,15.02
2022-09-23T09:55:12.310Z,15.01
2022-09-23T09:57:45.334Z,15.23
2022-09-23T10:00:26.437Z,15.43
2022-09-23T10:02:59.360Z,15.63
2022-09-23T10:05:30.181Z,15.62
2022-09-23T10:07:56.695Z,15.57
2022-09-23T10:10:33.745Z,15.66
2022-09-23T10:13:15.167Z,15.76
2022-09-23T10:15:44.958Z,15.79
2022-09-23T10:18:29.724Z,15.85
2022-09-23T10:21:16.090Z,15.94
2022-09-23T10:23:46.483Z,16.12
2022-09-23T10:26:17.342Z,16.19
2022-09-23T10:28:50.489Z,16.24
2022-09-23T10:31:25.201Z,16.25
2022-09-23T10:33:54.765Z,16.27
2022-09-23T10:36:21.759Z,16.33
2022-09-23T10:38:55.141Z,16.44
2022-09-23T10:41:54.789Z,16.38
2022-09-23T10:44:56.738Z,16.35
2022-09-23T10:47:46.706Z,16.41
2022-09-23T10:50:38.319Z,16.49
2022-09-23T10:53:12.624Z,16.50
2022-09-23T10:56:08.001Z,16.45
2022-09-23T10:58:50.356Z,16.41
2022-09-23T11:01:38.217Z,16.47
2022-09-23T11:04:18.094Z,16.47
2022-09-23T11:06:57.054Z,16.42
2022-09-23T11:09:30.243Z,16.52
2022-09-23T11:12:50.520Z,16.58
2022-09-23T11:15:24.809Z,16.53
2022-09-23T11:18:00.095Z,16.55
2022-09-23T11:20:34.158Z,16.63
2022-09-23T11:23:05.572Z,16.63
2022-09-23T11:26:13.940Z,16.68
2022-09-23T11:29:17.553Z,16.64
2022-09-23T11:31:47.336Z,16.64
2022-09-23T11:34:16.638Z,16.64
2022-09-23T11:36:50.008Z,16.66
2022-09-23T11:39:25.263Z,16.73
2022-09-23T11:41:56.228Z,16.90
2022-09-23T11:44:43.728Z,17.07
2022-09-23T11:47:42.460Z,16.99
2022-09-23T11:50:18.918Z,16.96
2022-09-23T11:52:50.938Z,16.98
2022-09-23T11:55:23.433Z,17.16
2022-09-23T11:57:56.491Z,17.29
2022-09-23T12:00:27.923Z,17.46
2022-09-23T12:03:44.657Z,17.58
2022-09-23T12:06:19.895Z,17.64
2022-09-23T12:08:46.336Z,17.55
2022-09-23T12:11:22.474Z,17.59
2022-09-23T12:13:52.353Z,17.63
2022-09-23T12:16:50.650Z,17.74
2022-09-23T12:19:35.132Z,17.69
2022-09-23T12:22:26.977Z,17.56
2022-09-23T12:25:19.763Z,17.54
2022-09-23T12:27:51.957Z,17.47
2022-09-23T12:30:20.182Z,17.44
2022-09-23T12:32:47.322Z,17.47
2022-09-23T12:35:24.115Z,17.52
2022-09-23T12:37:51.830Z,17.52
2022-09-23T12:40:31.926Z,17.47
2022-09-23T12:43:01.080Z,17.48
2022-09-23T12:45:32.613Z,17.54
2022-09-23T12:48:20.044Z,17.60
2022-09-23T12:50:54.084Z,17.58
2022-09-23T12:53:35.737Z,17.52
2022-09-23T12:56:15.501Z,17.55
2022-09-23T12:58:42.248Z,17.62
2022-09-23T13:01:14.703Z,17.65
2022-09-23T13:04:11.094Z,17.68
2022-09-23T13:06:47.022Z,17.70
2022-09-23T13:09:19.010Z,17.71
2022-09-23T13:11:47.982Z,17.79
2022-09-23T13:14:26.714Z,17.89
2022-09-23T13:16:56.130Z,17.88
2022-09-23T13:19:25.402Z,17.92
2022-09-23T13:21:54.847Z,17.97
2022-09-23T13:24:29.930Z,17.96
2022-09-23T13:27:05.675Z,17.96
2022-09-23T13:29:41.175Z,17.88
2022-09-23T13:32:19.233Z,17.83
2022-09-23T13:34:55.945Z,17.73
2022-09-23T13:37:31.499Z,17.65
2022-09-23T13:40:19.303Z,17.62
2022-09-23T13:42:54.672Z,17.67
2022-09-23T13:45:24.039Z,17.68
2022-09-23T13:47:52.936Z,17.76
2022-09-23T13:50:22.364Z,17.83
2022-09-23T13:53:01.113Z,17.82
2022-09-23T13:55:39.148Z,17.84
2022-09-23T13:58:17.232Z,17.88
2022-09-23T14:00:43.755Z,17.93
2022-09-23T14:03:31.190Z,17.94
2022-09-23T14:06:02.276Z,17.96
2022-09-23T14:08:29.959Z,18.00
2022-09-23T14:10:59.341Z,18.07
2022-09-23T14:13:34.857Z,18.12
2022-09-23T14:16:04.024Z,18.13
2022-09-23T14:18:36.425Z,18.07
2022-09-23T14:21:03.659Z,18.00
2022-09-23T14:23:30.414Z,17.96
2022-09-23T14:25:58.891Z,18.02
2022-09-23T14:28:27.334Z,17.99
2022-09-23T14:30:58.041Z,17.87
2022-09-23T14:33:32.711Z,17.83
2022-09-23T14:36:29.225Z,17.82
2022-09-23T14:39:10.738Z,17.84
2022-09-23T14:41:41.150Z,17.81
2022-09-23T14:44:17.772Z,17.79
2022-09-23T14:46:56.495Z,17.75
2022-09-23T14:49:24.122Z,17.76
2022-09-23T14:51:59.535Z,17.74
2022-09-23T14:54:44.746Z,17.62
2022-09-23T14:57:38.528Z,17.55
2022-09-23T15:00:14.073Z,17.51
2022-09-23T15:02:44.300Z,17.41
2022-09-23T15:05:17.203Z,17.36
2022-09-23T15:07:48.182Z,17.30
2022-09-23T15:10:23.552Z,17.26
2022-09-23T15:12:52.482Z,17.20
2022-09-23T15:15:19.852Z,17.12
2022-09-23T15:17:46.905Z,17.06
2022-09-23T15:20:25.651Z,17.01
2022-09-23T15:22:55.062Z,16.99
2022-09-23T15:25:35.541Z,16.94
2022-09-23T15:28:04.230Z,16.94
2022-09-23T15:30:32.061Z,16.93
2022-09-23T15:32:59.933Z,16.90
2022-09-23T15:35:28.580Z,16.90
2022-09-23T15:37:58.772Z,16.88
2022-09-23T15:40:30.131Z,16.86
2022-09-23T15:42:58.903Z,16.84
2022-09-23T15:45:33.292Z,16.82
2022-09-23T15:48:07.218Z,16.80
2022-09-23T15:50:38.007Z,16.79
2022-09-23T15:53:05.919Z,16.78
2022-09-23T15:55:33.610Z,16.75
2022-09-23T15:58:00.323Z,16.76
2022-09-23T16:00:27.855Z,16.75
2022-09-23T16:02:54.372Z,16.73
2022-09-23T16:05:30.636Z,16.70
2022-09-23T16:07:57.837Z,16.67
2022-09-23T16:10:24.229Z,16.64
2022-09-23T16:12:53.780Z,16.62
2022-09-23T16:15:22.506Z,16.60
2022-09-23T16:17:49.027Z,16.55
2022-09-23T16:20:17.757Z,16.47
2022-09-23T16:22:52.961Z,16.41
2022-09-23T16:25:20.979Z,16.37
2022-09-23T16:27:47.525Z,16.29
2022-09-23T16:30:13.945Z,16.19
2022-09-23T16:32:40.365Z,16.14
2022-09-23T16:35:08.344Z,16.08
2022-09-23T16:37:35.205Z,16.01
2022-09-23T16:40:03.775Z,15.97
2022-09-23T16:42:30.220Z,15.94
2022-09-23T16:44:56.617Z,15.83
2022-09-23T16:47:23.068Z,15.74
2022-09-23T16:49:49.488Z,15.65
2022-09-23T16:52:16.822Z,15.57
2022-09-23T16:54:43.685Z,15.51
2022-09-23T16:57:10.284Z,15.47
2022-09-23T16:59:55.076Z,15.44
2022-09-23T17:02:40.599Z,15.40
2022-09-23T17:05:07.358Z,15.34
2022-09-23T17:07:33.740Z,15.29
2022-09-23T17:10:00.315Z,15.25
2022-09-23T17:12:33.560Z,15.16
2022-09-23T17:15:00.530Z,15.14
2022-09-23T17:17:28.356Z,15.12
2022-09-23T17:19:54.756Z,15.09
2022-09-23T17:22:21.193Z,15.08
2022-09-23T17:24:47.600Z,15.06
2022-09-23T17:27:15.967Z,15.03
2022-09-23T17:29:44.395Z,15.02
2022-09-23T17:32:10.803Z,14.99
2022-09-23T17:34:37.226Z,14.98
2022-09-23T17:37:04.246Z,14.96
2022-09-23T17:39:31.600Z,14.88
2022-09-23T17:41:58.480Z,14.83
2022-09-23T17:44:24.906Z,14.80
2022-09-23T17:46:52.080Z,14.79
2022-09-23T17:49:18.715Z,14.78
2022-09-23T17:51:45.544Z,14.79
2022-09-23T17:54:12.070Z,14.82
2022-09-23T17:56:38.505Z,14.83
2022-09-23T17:59:04.923Z,14.82
2022-09-23T18:01:31.841Z,14.79
2022-09-23T18:04:00.468Z,14.74
2022-09-23T18:06:31.309Z,14.69
2022-09-23T18:09:01.396Z,14.65
2022-09-23T18:11:29.874Z,14.67
2022-09-23T18:14:12.954Z,14.63
2022-09-23T18:16:41.402Z,14.61
2022-09-23T18:19:11.515Z,14.63
2022-09-23T18:21:40.831Z,14.60
2022-09-23T18:24:31.432Z,14.54
2022-09-23T18:26:57.271Z,14.52
2022-09-23T18:29:24.189Z,14.49
2022-09-23T18:31:50.913Z,14.48
2022-09-23T18:34:17.420Z,14.48
2022-09-23T18:36:44.568Z,14.47
2022-09-23T18:39:11.084Z,14.49
2022-09-23T18:41:37.924Z,14.49
2022-09-23T18:44:04.835Z,14.48
2022-09-23T18:46:31.885Z,14.46
2022-09-23T18:49:17.931Z,14.45
2022-09-23T18:51:54.376Z,14.42
2022-09-23T18:54:22.310Z,14.45
2022-09-23T18:56:49.837Z,14.46
2022-09-23T18:59:19.439Z,14.46
2022-09-23T19:01:48.242Z,14.43
2022-09-23T19:04:17.256Z,14.38
2022-09-23T19:06:43.776Z,14.38
2022-09-23T19:09:11.917Z,14.30
2022-09-23T19:11:38.648Z,14.26
2022-09-23T19:14:07.660Z,14.26
2022-09-23T19:16:35.961Z,14.25
2022-09-23T19:19:04.265Z,14.25
2022-09-23T19:21:31.266Z,14.24
2022-09-23T19:24:03.340Z,14.24
2022-09-23T19:26:36.643Z,14.24
2022-09-23T19:29:04.965Z,14.25
2022-09-23T19:31:35.010Z,14.26
2022-09-23T19:34:06.021Z,14.26
2022-09-23T19:36:34.332Z,14.24
2022-09-23T19:39:04.652Z,14.26
2022-09-23T19:41:33.262Z,14.25
2022-09-23T19:44:03.824Z,14.23
2022-09-23T19:46:32.434Z,14.22
2022-09-23T19:49:00.184Z,14.18
2022-09-23T19:51:27.248Z,14.17
2022-09-23T19:53:53.922Z,14.17
2022-09-23T19:56:20.497Z,14.16
2022-09-23T19:58:52.098Z,14.17
2022-09-23T20:01:19.253Z,14.17
2022-09-23T20:03:46.884Z,14.17
2022-09-23T20:06:15.301Z,14.15
2022-09-23T20:08:42.198Z,14.17
2022-09-23T20:11:15.047Z,14.16
2022-09-23T20:13:43.880Z,14.15
2022-09-23T20:16:13.322Z,14.15
2022-09-23T20:18:41.301Z,14.16
2022-09-23T20:21:10.978Z,14.19
2022-09-23T20:23:37.494Z,14.19
2022-09-23T20:26:24.113Z,14.16
2022-09-23T20:28:50.725Z,14.15
2022-09-23T20:31:18.574Z,14.15
2022-09-23T20:33:46.414Z,14.13
2022-09-23T20:36:13.392Z,14.11
2022-09-23T20:38:40.495Z,14.14
2022-09-23T20:41:08.256Z,14.13
2022-09-23T20:43:35.193Z,14.13
2022-09-23T20:46:03.493Z,14.10
2022-09-23T20:48:30.895Z,14.12
2022-09-23T20:51:05.473Z,14.15
2022-09-23T20:53:32.429Z,14.14
2022-09-23T20:55:59.465Z,14.08
2022-09-23T20:58:27.618Z,14.04
2022-09-23T21:00:54.458Z,14.03
2022-09-23T21:03:21.094Z,14.01
2022-09-23T21:05:47.660Z,13.99
2022-09-23T21:08:15.641Z,13.97
2022-09-23T21:10:42.140Z,13.94
2022-09-23T21:13:08.475Z,13.89
2022-09-23T21:15:35.639Z,13.86
2022-09-23T21:18:02.102Z,13.86
2022-09-23T21:20:28.522Z,13.83
2022-09-23T21:22:56.252Z,13.81
2022-09-23T21:25:28.145Z,13.81
2022-09-23T21:27:55.295Z,13.82
2022-09-23T21:30:22.221Z,13.81
2022-09-23T21:32:48.752Z,13.80
2022-09-23T21:35:16.058Z,13.78
2022-09-23T21:37:42.473Z,13.77
2022-09-23T21:40:28.260Z,13.75
2022-09-23T21:42:59.153Z,13.74
2022-09-23T21:45:26.417Z,13.74
2022-09-23T21:47:53.384Z,13.73
2022-09-23T21:50:20.421Z,13.72
2022-09-23T21:52:50.324Z,13.71
2022-09-23T21:55:16.781Z,13.68
2022-09-23T21:57:44.122Z,13.66
2022-09-23T22:00:11.846Z,13.64
2022-09-23T22:02:39.858Z,13.62
2022-09-23T22:05:07.206Z,13.60
2022-09-23T22:07:38.056Z,13.59
2022-09-23T22:10:05.943Z,13.58
2022-09-23T22:12:33.374Z,13.58
2022-09-23T22:14:59.843Z,13.57
2022-09-23T22:17:26.401Z,13.55
2022-09-23T22:19:52.889Z,13.56
2022-09-23T22:22:19.467Z,13.58
2022-09-23T22:24:46.981Z,13.58
2022-09-23T22:27:17.423Z,13.56
2022-09-23T22:30:02.496Z,13.54
2022-09-23T22:32:42.250Z,13.52
2022-09-23T22:35:14.036Z,13.51
2022-09-23T22:37:40.472Z,13.51
2022-09-23T22:40:09.975Z,13.50
2022-09-23T22:42:36.558Z,13.48
2022-09-23T22:45:05.696Z,13.46
2022-09-23T22:47:37.500Z,13.45
2022-09-23T22:50:08.777Z,13.46
2022-09-23T22:52:36.082Z,13.47
2022-09-23T22:55:03.586Z,13.45
2022-09-23T22:57:30.002Z,13.45
2022-09-23T22:59:56.499Z,13.47
2022-09-23T23:02:23.746Z,13.46
2022-09-23T23:04:50.376Z,13.47
2022-09-23T23:07:21.038Z,13.47
2022-09-23T23:09:49.932Z,13.47
2022-09-23T23:12:17.068Z,13.46
2022-09-23T23:14:43.441Z,13.46
2022-09-23T23:17:09.864Z,13.46
2022-09-23T23:19:37.018Z,13.43
2022-09-23T23:22:04.613Z,13.43
2022-09-23T23:24:31.531Z,13.47
2022-09-23T23:26:58.093Z,13.48
2022-09-23T23:29:24.524Z,13.47
2022-09-23T23:31:51.099Z,13.47
2022-09-23T23:34:21.583Z,13.44
2022-09-23T23:36:54.323Z,13.42
2022-09-23T23:39:23.508Z,13.44
2022-09-23T23:41:57.536Z,13.48
2022-09-23T23:44:25.768Z,13.48
2022-09-23T23:46:53.773Z,13.49
2022-09-23T23:49:20.220Z,13.49
2022-09-23T23:51:47.872Z,13.50
2022-09-23T23:54:15.196Z,13.50
2022-09-23T23:56:42.227Z,13.47
2022-09-23T23:59:08.609Z,13.42
